createdAt,value
2019-03-09T00:02:17.656Z,1.53
2019-03-09T00:04:47.750Z,1.70
2019-03-09T00:07:17.891Z,2.07
2019-03-09T00:09:47.961Z,1.80
2019-03-09T00:12:37.140Z,1.80
2019-03-09T00:15:07.369Z,1.70
2019-03-09T00:17:56.564Z,1.90
2019-03-09T00:20:45.817Z,1.60
2019-03-09T00:23:35.768Z,1.80
2019-03-09T00:30:09.305Z,2.30
2019-03-09T00:32:55.166Z,2.00
2019-03-09T00:35:37.325Z,1.90
2019-03-09T00:38:19.396Z,2.33
2019-03-09T00:41:01.138Z,2.20
2019-03-09T00:43:43.446Z,1.80
2019-03-09T00:46:28.147Z,2.37
2019-03-09T00:48:58.319Z,2.57
2019-03-09T00:51:28.366Z,2.30
2019-03-09T00:54:17.756Z,2.40
2019-03-09T01:00:01.591Z,2.47
2019-03-09T01:02:51.241Z,2.47
2019-03-09T01:05:53.368Z,2.10
2019-03-09T01:08:23.444Z,2.50
2019-03-09T01:14:13.446Z,2.40
2019-03-09T01:16:43.481Z,2.40
2019-03-09T01:19:32.663Z,2.00
2019-03-09T01:25:28.837Z,2.33
2019-03-09T01:28:10.309Z,2.10
2019-03-09T01:30:40.561Z,2.17
2019-03-09T01:33:29.754Z,1.80
2019-03-09T01:35:59.862Z,2.00
2019-03-09T01:38:29.929Z,2.00
2019-03-09T01:40:59.966Z,2.37
2019-03-09T01:43:49.173Z,1.90
2019-03-09T01:46:30.695Z,2.07
2019-03-09T01:49:12.257Z,1.90
2019-03-09T01:51:54.676Z,1.90
2019-03-09T01:54:37.027Z,1.87
2019-03-09T01:57:26.227Z,1.57
2019-03-09T02:00:08.037Z,1.67
2019-03-09T02:02:50.173Z,1.87
2019-03-09T02:05:39.342Z,1.90
2019-03-09T02:08:21.119Z,2.13
2019-03-09T02:11:03.408Z,1.90
2019-03-09T02:13:45.692Z,1.60
2019-03-09T02:16:27.461Z,1.50
2019-03-09T02:19:09.836Z,1.70
2019-03-09T02:21:39.949Z,1.53
2019-03-09T02:24:17.713Z,1.33
2019-03-09T02:26:47.670Z,1.37
2019-03-09T02:29:17.652Z,1.50
2019-03-09T02:32:06.871Z,1.50
2019-03-09T02:34:36.920Z,1.40
2019-03-09T02:37:06.940Z,1.70
2019-03-09T02:39:56.091Z,1.87
2019-03-09T02:42:38.216Z,1.50
2019-03-09T02:45:10.427Z,1.83
2019-03-09T02:47:59.881Z,1.60
2019-03-09T02:50:29.941Z,1.50
2019-03-09T02:53:00.149Z,1.63
2019-03-09T02:55:30.205Z,1.30
2019-03-09T02:58:19.380Z,1.50
2019-03-09T03:01:27.617Z,1.63
2019-03-09T03:04:09.035Z,1.57
2019-03-09T03:06:50.649Z,1.50
2019-03-09T03:09:32.485Z,1.50
2019-03-09T03:12:14.665Z,1.30
2019-03-09T03:14:56.380Z,1.40
2019-03-09T03:17:37.926Z,1.20
2019-03-09T03:20:08.312Z,1.50
2019-03-09T03:22:57.485Z,1.50
2019-03-09T03:25:46.673Z,1.23
2019-03-09T03:28:28.972Z,1.20
2019-03-09T03:31:10.464Z,1.00
2019-03-09T03:33:50.990Z,1.10
2019-03-09T03:36:20.873Z,1.20
2019-03-09T03:39:10.126Z,1.40
2019-03-09T03:41:40.247Z,1.00
2019-03-09T03:44:10.305Z,0.90
2019-03-09T03:46:59.650Z,0.90
2019-03-09T03:49:48.844Z,0.90
2019-03-09T03:52:18.952Z,1.13
2019-03-09T03:55:08.136Z,1.10
2019-03-09T03:57:38.168Z,1.10
2019-03-09T04:00:08.649Z,1.10
2019-03-09T04:06:12.172Z,1.10
2019-03-09T04:08:42.406Z,0.90
2019-03-09T04:11:31.616Z,0.83
2019-03-09T04:14:20.800Z,1.00
2019-03-09T04:17:02.684Z,1.10
2019-03-09T04:19:44.430Z,0.90
2019-03-09T04:22:26.746Z,1.07
2019-03-09T04:25:08.657Z,1.00
2019-03-09T04:27:38.679Z,1.00
2019-03-09T04:30:08.912Z,1.17
2019-03-09T04:32:58.060Z,1.60
2019-03-09T04:35:47.249Z,1.60
2019-03-09T04:42:00.641Z,2.90
2019-03-09T04:44:42.238Z,2.00
2019-03-09T04:47:23.832Z,2.50
2019-03-09T04:50:05.319Z,2.50
2019-03-09T04:52:47.149Z,2.23
2019-03-09T04:55:28.690Z,2.50
2019-03-09T04:57:58.553Z,2.00
2019-03-09T05:00:47.719Z,2.27
2019-03-09T05:03:36.888Z,3.07
2019-03-09T05:06:07.556Z,2.93
2019-03-09T05:09:15.812Z,4.37
2019-03-09T05:11:58.120Z,4.17
2019-03-09T05:14:27.968Z,5.20
2019-03-09T05:17:17.119Z,5.27
2019-03-09T05:20:06.365Z,5.23
2019-03-09T05:22:36.289Z,4.70
2019-03-09T05:25:25.385Z,5.27
2019-03-09T05:27:55.239Z,4.57
2019-03-09T05:30:45.192Z,4.63
2019-03-09T05:33:27.148Z,4.07
2019-03-09T05:36:07.383Z,5.57
2019-03-09T05:38:56.525Z,5.13
2019-03-09T05:41:26.391Z,4.43
2019-03-09T05:44:08.098Z,5.70
2019-03-09T05:46:49.594Z,5.47
2019-03-09T05:49:19.532Z,6.00
2019-03-09T05:52:27.836Z,5.77
2019-03-09T05:55:17.042Z,5.40
2019-03-09T05:57:59.186Z,4.37
2019-03-09T06:00:41.817Z,4.93
2019-03-09T06:03:24.072Z,4.80
2019-03-09T06:06:06.392Z,5.10
2019-03-09T06:08:47.932Z,5.63
2019-03-09T06:11:30.104Z,5.70
2019-03-09T06:14:12.533Z,4.47
2019-03-09T06:16:42.476Z,4.03
2019-03-09T06:19:31.854Z,4.03
2019-03-09T06:22:13.721Z,4.37
2019-03-09T06:24:55.127Z,4.83
2019-03-09T06:27:35.412Z,4.83
2019-03-09T06:37:00.031Z,4.77
2019-03-09T06:39:50.524Z,3.83
2019-03-09T06:42:32.681Z,3.73
2019-03-09T06:45:14.313Z,3.80
2019-03-09T06:47:56.591Z,4.07
2019-03-09T06:53:34.726Z,4.23
2019-03-09T06:56:16.534Z,3.80
2019-03-09T06:58:47.691Z,3.93
2019-03-09T07:01:56.413Z,3.20
2019-03-09T07:04:46.261Z,3.67
2019-03-09T07:07:17.576Z,3.53
2019-03-09T07:10:07.429Z,3.70
2019-03-09T07:12:57.306Z,3.53
2019-03-09T07:15:39.941Z,3.33
2019-03-09T07:21:11.596Z,3.30
2019-03-09T07:23:54.701Z,3.33
2019-03-09T07:26:37.494Z,2.83
2019-03-09T07:29:20.967Z,3.50
2019-03-09T07:32:03.015Z,4.83
2019-03-09T07:34:44.879Z,3.67
2019-03-09T07:37:26.464Z,4.00
2019-03-09T07:40:07.832Z,4.60
2019-03-09T07:42:49.695Z,3.93
2019-03-09T07:45:32.143Z,3.67
2019-03-09T07:48:13.611Z,2.90
2019-03-09T07:50:55.300Z,2.50
2019-03-09T07:53:36.868Z,2.70
2019-03-09T07:56:18.664Z,2.47
2019-03-09T07:59:00.092Z,2.80
2019-03-09T08:01:41.872Z,2.40
2019-03-09T08:04:23.495Z,2.60
2019-03-09T08:07:03.752Z,2.63
2019-03-09T08:09:52.892Z,2.30
2019-03-09T08:12:35.221Z,2.17
2019-03-09T08:15:16.810Z,2.40
2019-03-09T08:17:59.058Z,2.50
2019-03-09T08:20:40.714Z,2.83
2019-03-09T08:23:22.272Z,2.53
2019-03-09T08:26:04.236Z,2.50
2019-03-09T08:28:45.758Z,2.20
2019-03-09T08:31:28.165Z,2.20
2019-03-09T08:34:10.309Z,2.10
2019-03-09T08:36:52.729Z,1.90
2019-03-09T08:39:34.841Z,2.20
2019-03-09T08:42:16.995Z,2.10
2019-03-09T08:44:58.856Z,2.00
2019-03-09T08:47:28.752Z,1.80
2019-03-09T08:49:58.610Z,1.70
2019-03-09T08:52:47.894Z,1.73
2019-03-09T08:55:37.158Z,2.30
2019-03-09T08:58:19.455Z,1.90
2019-03-09T09:01:01.778Z,2.27
2019-03-09T09:03:45.209Z,1.83
2019-03-09T09:06:26.937Z,2.00
2019-03-09T09:09:09.086Z,1.97
2019-03-09T09:11:50.972Z,2.30
2019-03-09T09:14:32.729Z,2.03
2019-03-09T09:17:14.210Z,1.70
2019-03-09T09:19:56.693Z,2.00
2019-03-09T09:22:38.821Z,1.90
2019-03-09T09:25:22.847Z,1.70
2019-03-09T09:28:04.449Z,1.80
2019-03-09T09:30:46.732Z,1.83
2019-03-09T09:33:16.928Z,1.90
2019-03-09T09:36:18.281Z,1.87
2019-03-09T09:39:09.581Z,2.00
2019-03-09T09:41:51.545Z,1.37
2019-03-09T09:44:21.597Z,1.50
2019-03-09T09:47:10.802Z,2.00
2019-03-09T09:49:52.804Z,1.70
2019-03-09T09:52:34.973Z,1.90
2019-03-09T09:55:16.743Z,1.53
2019-03-09T09:57:58.661Z,1.70
2019-03-09T10:00:40.157Z,1.90
2019-03-09T10:03:21.938Z,1.63
2019-03-09T10:06:02.128Z,1.53
2019-03-09T10:08:43.628Z,1.80
2019-03-09T10:11:25.235Z,1.77
2019-03-09T10:14:06.945Z,1.80
2019-03-09T10:16:48.484Z,1.80
2019-03-09T10:19:18.612Z,1.50
2019-03-09T10:22:07.688Z,1.50
2019-03-09T10:25:09.430Z,1.60
2019-03-09T10:30:27.433Z,1.43
2019-03-09T10:35:46.504Z,1.30
2019-03-09T10:38:16.436Z,1.40
2019-03-09T10:41:05.688Z,1.20
2019-03-09T10:43:35.622Z,1.47
2019-03-09T10:46:17.528Z,1.70
2019-03-09T10:48:47.519Z,1.40
2019-03-09T10:51:17.604Z,1.20
2019-03-09T10:53:47.450Z,1.20
2019-03-09T10:56:36.639Z,1.20
2019-03-09T10:59:25.897Z,1.40
2019-03-09T11:02:07.870Z,1.47
2019-03-09T11:04:50.256Z,1.30
2019-03-09T11:07:32.208Z,1.50
2019-03-09T11:10:15.888Z,1.60
2019-03-09T11:12:57.275Z,1.23
2019-03-09T11:15:38.912Z,1.30
2019-03-09T11:18:19.333Z,1.63
2019-03-09T11:21:01.235Z,1.30
2019-03-09T11:23:43.442Z,1.47
2019-03-09T11:26:13.566Z,1.30
2019-03-09T11:29:02.703Z,1.90
2019-03-09T11:31:44.505Z,1.60
2019-03-09T11:34:26.583Z,1.50
2019-03-09T11:37:08.568Z,1.43
2019-03-09T11:39:50.780Z,1.40
2019-03-09T11:42:32.872Z,1.70
2019-03-09T11:45:14.441Z,1.57
2019-03-09T11:48:01.472Z,1.60
2019-03-09T11:50:43.831Z,1.83
2019-03-09T11:53:26.070Z,1.83
2019-03-09T11:56:10.665Z,1.87
2019-03-09T11:58:41.859Z,1.50
2019-03-09T12:01:31.984Z,1.70
2019-03-09T12:04:21.946Z,1.57
2019-03-09T12:07:04.411Z,2.00
2019-03-09T12:09:46.809Z,2.13
2019-03-09T12:12:29.530Z,1.50
2019-03-09T12:15:12.052Z,1.93
2019-03-09T12:17:43.084Z,2.10
2019-03-09T12:20:33.306Z,2.00
2019-03-09T12:23:24.190Z,1.73
2019-03-09T12:25:56.036Z,1.70
2019-03-09T12:28:46.144Z,2.07
2019-03-09T12:31:28.759Z,1.63
2019-03-09T12:34:10.839Z,1.63
2019-03-09T12:36:53.397Z,1.70
2019-03-09T12:39:35.658Z,1.60
2019-03-09T12:42:18.710Z,1.63
2019-03-09T12:44:49.670Z,2.17
2019-03-09T12:47:44.294Z,1.83
2019-03-09T12:50:16.023Z,1.47
2019-03-09T12:53:05.244Z,1.60
2019-03-09T12:55:35.587Z,2.20
2019-03-09T12:58:24.660Z,2.37
2019-03-09T13:01:13.841Z,1.80
2019-03-09T13:03:43.732Z,2.40
2019-03-09T13:06:32.916Z,3.00
2019-03-09T13:09:22.251Z,2.50
2019-03-09T13:12:03.764Z,3.20
2019-03-09T13:14:46.164Z,4.07
2019-03-09T13:17:29.753Z,2.90
2019-03-09T13:20:11.997Z,3.20
2019-03-09T13:22:53.545Z,3.67
2019-03-09T13:25:35.129Z,4.10
2019-03-09T13:28:17.284Z,3.20
2019-03-09T13:30:47.447Z,3.40
2019-03-09T13:33:36.819Z,3.63
2019-03-09T13:36:38.348Z,4.07
2019-03-09T13:42:42.743Z,3.73
2019-03-09T13:45:44.447Z,3.17
2019-03-09T13:48:26.654Z,3.43
2019-03-09T13:51:08.384Z,3.63
2019-03-09T13:53:50.368Z,3.63
2019-03-09T13:56:32.343Z,4.57
2019-03-09T13:59:02.368Z,3.97
2019-03-09T14:01:57.607Z,3.40
2019-03-09T14:08:39.664Z,3.80
2019-03-09T14:11:21.757Z,4.67
2019-03-09T14:14:06.956Z,4.37
2019-03-09T14:16:48.750Z,4.60
2019-03-09T14:19:30.433Z,4.17
2019-03-09T14:22:12.396Z,3.80
2019-03-09T14:24:55.582Z,4.63
2019-03-09T14:27:37.730Z,4.43
2019-03-09T14:30:19.483Z,4.13
2019-03-09T14:32:49.736Z,4.23
2019-03-09T14:35:19.894Z,4.67
2019-03-09T14:37:49.930Z,5.17
2019-03-09T14:40:19.898Z,5.20
2019-03-09T14:42:49.980Z,4.10
2019-03-09T14:45:20.113Z,4.37
2019-03-09T14:51:23.663Z,4.90
2019-03-09T14:54:06.032Z,4.63
2019-03-09T15:00:11.279Z,3.87
2019-03-09T15:02:41.247Z,3.27
2019-03-09T15:05:30.395Z,4.90
2019-03-09T15:08:12.617Z,4.07
2019-03-09T15:10:42.744Z,3.60
2019-03-09T15:13:12.796Z,3.83
2019-03-09T15:16:01.936Z,3.23
2019-03-09T15:18:43.612Z,3.37
2019-03-09T15:21:25.012Z,3.43
2019-03-09T15:24:09.913Z,2.80
2019-03-09T15:26:59.107Z,4.57
2019-03-09T15:29:42.899Z,4.30
2019-03-09T15:32:25.260Z,3.50
2019-03-09T15:35:05.641Z,4.20
2019-03-09T15:37:47.372Z,4.00
2019-03-09T15:40:28.828Z,3.20
2019-03-09T15:45:54.222Z,3.43
2019-03-09T15:48:24.377Z,3.20
2019-03-09T15:51:13.814Z,3.50
2019-03-09T15:53:43.824Z,3.10
2019-03-09T15:56:13.944Z,3.13
2019-03-09T15:58:43.948Z,3.53
2019-03-09T16:01:13.996Z,4.00
2019-03-09T16:03:43.934Z,3.27
2019-03-09T16:06:14.281Z,3.80
2019-03-09T16:08:55.848Z,3.20
2019-03-09T16:11:44.705Z,3.30
2019-03-09T16:14:21.300Z,3.13
2019-03-09T16:17:03.272Z,3.13
2019-03-09T16:22:28.079Z,3.23
2019-03-09T16:25:10.736Z,3.77
2019-03-09T16:27:52.779Z,3.63
2019-03-09T16:30:34.217Z,3.17
2019-03-09T16:33:16.312Z,3.70
2019-03-09T16:35:58.881Z,4.03
2019-03-09T16:38:41.347Z,3.53
2019-03-09T16:41:26.031Z,3.27
2019-03-09T16:44:11.175Z,3.40
2019-03-09T16:46:53.828Z,3.50
2019-03-09T16:49:36.049Z,4.60
2019-03-09T16:52:17.603Z,2.77
2019-03-09T16:54:59.438Z,3.03
2019-03-09T16:57:41.871Z,2.50
2019-03-09T17:00:23.996Z,2.67
2019-03-09T17:03:05.884Z,4.20
2019-03-09T17:05:48.734Z,3.37
2019-03-09T17:08:31.090Z,3.60
2019-03-09T17:11:13.589Z,3.77
2019-03-09T17:13:55.748Z,3.83
2019-03-09T17:16:37.356Z,3.67
2019-03-09T17:19:19.158Z,2.77
2019-03-09T17:22:01.542Z,2.80
2019-03-09T17:24:43.891Z,4.63
2019-03-09T17:27:26.559Z,4.20
2019-03-09T17:30:08.030Z,3.57
2019-03-09T17:32:50.332Z,3.87
2019-03-09T17:35:33.342Z,4.20
2019-03-09T17:38:15.681Z,3.40
2019-03-09T17:40:58.120Z,3.70
2019-03-09T17:43:40.389Z,4.23
2019-03-09T17:46:22.144Z,4.20
2019-03-09T17:49:04.525Z,3.80
2019-03-09T18:01:11.667Z,3.50
2019-03-09T18:03:53.677Z,4.50
2019-03-09T18:06:35.732Z,3.90
2019-03-09T18:09:17.646Z,4.30
2019-03-09T18:11:59.339Z,3.50
2019-03-09T18:14:41.512Z,5.43
2019-03-09T18:17:23.157Z,4.70
2019-03-09T18:20:05.039Z,4.37
2019-03-09T18:22:47.261Z,3.20
2019-03-09T18:25:29.264Z,4.00
2019-03-09T18:28:11.009Z,3.67
2019-03-09T18:30:53.044Z,4.07
2019-03-09T18:33:33.464Z,3.87
2019-03-09T18:36:22.514Z,3.63
2019-03-09T18:39:04.666Z,3.67
2019-03-09T18:41:45.993Z,3.93
2019-03-09T18:44:28.348Z,3.67
2019-03-09T18:47:10.525Z,3.20
2019-03-09T18:49:52.475Z,3.60
2019-03-09T18:52:33.956Z,3.70
2019-03-09T18:55:16.216Z,3.47
2019-03-09T18:57:58.317Z,3.50
2019-03-09T19:00:40.073Z,3.60
2019-03-09T19:03:21.775Z,3.37
2019-03-09T19:06:03.790Z,2.80
2019-03-09T19:08:45.523Z,2.77
2019-03-09T19:11:26.968Z,2.77
2019-03-09T19:14:08.961Z,2.57
2019-03-09T19:16:50.985Z,2.90
2019-03-09T19:19:32.440Z,2.70
2019-03-09T19:22:18.987Z,2.77
2019-03-09T19:25:01.931Z,2.67
2019-03-09T19:27:44.356Z,2.97
2019-03-09T19:36:25.222Z,2.50
2019-03-09T19:39:07.507Z,2.70
2019-03-09T19:41:50.144Z,2.80
2019-03-09T19:44:32.490Z,1.90
2019-03-09T19:47:14.548Z,2.90
2019-03-09T19:49:57.292Z,3.37
2019-03-09T19:52:40.007Z,2.57
2019-03-09T19:55:22.373Z,4.57
2019-03-09T19:58:04.298Z,3.40
2019-03-09T20:00:46.548Z,3.90
2019-03-09T20:03:28.689Z,4.17
2019-03-09T20:06:10.752Z,3.40
2019-03-09T20:08:53.115Z,3.20
2019-03-09T20:11:34.944Z,2.97
2019-03-09T20:14:17.680Z,2.90
2019-03-09T20:17:00.252Z,3.47
2019-03-09T20:19:42.674Z,3.40
2019-03-09T20:22:13.542Z,2.83
2019-03-09T20:25:03.182Z,3.30
2019-03-09T20:27:33.950Z,3.30
2019-03-09T20:30:35.635Z,2.93
2019-03-09T20:33:17.930Z,3.87
2019-03-09T20:36:00.279Z,5.33
2019-03-09T20:38:42.003Z,5.10
2019-03-09T20:41:24.678Z,5.10
2019-03-09T20:44:06.821Z,5.30
2019-03-09T20:46:49.436Z,5.10
2019-03-09T20:49:20.350Z,4.20
2019-03-09T20:52:09.984Z,5.60
2019-03-09T20:55:11.744Z,4.73
2019-03-09T20:57:53.857Z,5.80
2019-03-09T21:00:35.960Z,5.70
2019-03-09T21:03:23.001Z,5.53
2019-03-09T21:06:05.029Z,5.53
2019-03-09T21:08:47.100Z,4.10
2019-03-09T21:11:29.777Z,3.93
2019-03-09T21:14:12.208Z,5.63
2019-03-09T21:16:54.442Z,4.63
2019-03-09T21:19:24.773Z,4.43
2019-03-09T21:22:14.424Z,5.93
2019-03-09T21:25:03.864Z,4.67
2019-03-09T21:27:45.780Z,4.77
2019-03-09T21:30:28.196Z,5.13
2019-03-09T21:33:10.336Z,5.90
2019-03-09T21:35:52.640Z,5.80
2019-03-09T21:38:34.539Z,5.03
2019-03-09T21:41:16.901Z,4.70
2019-03-09T21:43:59.016Z,5.47
2019-03-09T21:46:39.413Z,4.50
2019-03-09T21:49:28.475Z,4.87
2019-03-09T21:52:10.209Z,5.07
2019-03-09T21:54:52.424Z,4.00
2019-03-09T21:57:34.479Z,4.40
2019-03-09T22:00:16.075Z,4.97
2019-03-09T22:02:58.299Z,5.70
2019-03-09T22:05:28.352Z,4.50
2019-03-09T22:08:17.403Z,4.63
2019-03-09T22:11:18.921Z,5.47
2019-03-09T22:14:00.990Z,4.17
2019-03-09T22:16:43.359Z,4.80
2019-03-09T22:19:24.770Z,5.73
2019-03-09T22:22:07.153Z,5.00
2019-03-09T22:24:48.468Z,4.27
2019-03-09T22:27:29.947Z,4.33
2019-03-09T22:30:11.436Z,5.20
2019-03-09T22:32:52.987Z,4.07
2019-03-09T22:35:34.579Z,3.87
2019-03-09T22:38:16.143Z,4.47
2019-03-09T22:40:46.300Z,4.53
2019-03-09T22:43:35.360Z,4.10
2019-03-09T22:46:15.540Z,4.00
2019-03-09T22:49:04.608Z,3.70
2019-03-09T22:51:46.987Z,4.90
2019-03-09T22:54:28.440Z,4.33
2019-03-09T22:57:10.017Z,4.63
2019-03-09T22:59:52.136Z,4.40
2019-03-09T23:02:33.766Z,4.00
2019-03-09T23:05:15.143Z,4.23
2019-03-09T23:07:55.543Z,3.90
2019-03-09T23:10:44.763Z,4.97
2019-03-09T23:13:24.960Z,4.80
2019-03-09T23:16:06.414Z,4.00
2019-03-09T23:18:48.682Z,3.87
2019-03-09T23:21:30.386Z,3.50
2019-03-09T23:24:12.156Z,4.43
2019-03-09T23:26:54.291Z,4.33
2019-03-09T23:29:35.729Z,3.93
2019-03-09T23:32:17.871Z,4.50
2019-03-09T23:34:59.990Z,3.70
2019-03-09T23:37:41.783Z,3.87
2019-03-09T23:40:23.208Z,4.33
2019-03-09T23:46:27.846Z,4.00
2019-03-09T23:49:10.148Z,4.37
2019-03-09T23:51:52.595Z,4.80
2019-03-09T23:54:34.173Z,4.37
2019-03-09T23:57:15.644Z,3.67
2019-03-09T23:59:57.333Z,3.77
